Time;durP1;ratioP1;P1;durP2;ratioP2;P2;SDS_P1;SDS_P2;PMS_P1;PMS_P2;Temp;Humidity;BMP_temperature;BMP_pressure;BME280_temperature;BME280_humidity;BME280_pressure;Samples;Min_cycle;Max_cycle;Signal;HPM_P1;HPM_P2
2022/10/14 00:00:39;;;;;;;19.73;12.43;;;;;;;17.19;67.93;97377.69;4910394;28;20212;-80
2022/10/14 00:03:04;;;;;;;21.15;13.23;;;;;;;17.20;67.55;97373.97;4913400;28;20193;-80
2022/10/14 00:05:30;;;;;;;19.20;12.85;;;;;;;17.20;67.50;97369.53;4955223;28;20335;-80
2022/10/14 00:07:55;;;;;;;23.33;13.55;;;;;;;17.26;67.50;97369.47;4913042;28;20686;-80
2022/10/14 00:10:21;;;;;;;21.13;12.50;;;;;;;17.20;67.75;97353.75;4896703;28;20238;-80
2022/10/14 00:12:46;;;;;;;19.40;12.25;;;;;;;17.25;67.55;97358.13;4928905;28;20255;-80
2022/10/14 00:15:12;;;;;;;18.33;12.40;;;;;;;17.22;67.46;97362.13;4927486;28;20328;-80
2022/10/14 00:17:38;;;;;;;22.73;13.32;;;;;;;17.26;67.46;97361.56;4928716;28;20274;-80
2022/10/14 00:20:05;;;;;;;21.02;13.85;;;;;;;17.29;67.18;97366.25;4896475;28;20374;-80
2022/10/14 00:22:30;;;;;;;22.15;13.30;;;;;;;17.25;67.52;97365.25;4919193;28;20731;-81
2022/10/14 00:24:56;;;;;;;19.65;13.27;;;;;;;17.24;67.59;97372.38;4927326;28;20292;-81
2022/10/14 00:27:21;;;;;;;24.25;13.70;;;;;;;17.24;67.17;97369.75;4910292;28;20209;-81
2022/10/14 00:29:46;;;;;;;18.85;13.10;;;;;;;17.15;67.74;97366.97;4950231;28;20205;-80
2022/10/14 00:32:12;;;;;;;21.38;13.23;;;;;;;17.17;67.78;97367.44;4919515;28;20633;-81
2022/10/14 00:34:37;;;;;;;22.58;12.52;;;;;;;17.21;67.45;97362.41;4937822;28;20331;-80
2022/10/14 00:37:03;;;;;;;20.20;12.77;;;;;;;17.20;67.44;97361.63;4896621;28;20284;-80
2022/10/14 00:39:28;;;;;;;23.15;14.32;;;;;;;17.24;67.48;97364.47;4928499;28;20193;-81
2022/10/14 00:41:53;;;;;;;19.33;12.93;;;;;;;17.29;66.97;97364.41;4912106;28;20352;-80
2022/10/14 00:44:19;;;;;;;22.83;12.88;;;;;;;17.33;67.05;97368.03;4921828;28;20248;-80
2022/10/14 00:46:48;;;;;;;20.95;13.85;;;;;;;17.15;67.54;97371.41;4944858;28;20205;-80
2022/10/14 00:49:16;;;;;;;22.80;13.13;;;;;;;17.20;67.36;97368.72;4893180;28;20515;-80
2022/10/14 00:51:45;;;;;;;21.48;12.68;;;;;;;17.11;67.58;97370.41;4928022;28;20363;-80
2022/10/14 00:54:12;;;;;;;24.70;13.95;;;;;;;17.09;68.10;97367.28;4893241;28;20272;-80
2022/10/14 00:56:38;;;;;;;22.00;12.95;;;;;;;17.17;67.91;97364.00;4927271;28;20169;-80
2022/10/14 00:59:04;;;;;;;22.63;14.23;;;;;;;17.14;67.52;97359.34;4893463;28;20193;-80
2022/10/14 01:01:30;;;;;;;20.63;13.05;;;;;;;17.20;67.58;97366.88;4925809;28;20192;-81
2022/10/14 01:03:55;;;;;;;21.95;12.77;;;;;;;17.21;67.60;97365.03;4893043;28;20217;-80
2022/10/14 01:06:23;;;;;;;25.95;15.70;;;;;;;17.13;67.89;97363.81;4912296;28;20358;-80
2022/10/14 01:09:12;;;;;;;23.83;13.95;;;;;;;16.90;68.36;97367.25;4912182;28;20217;-80
2022/10/14 01:11:57;;;;;;;21.00;13.70;;;;;;;17.00;68.02;97369.75;4920077;28;20787;-80
2022/10/14 01:14:25;;;;;;;22.92;14.38;;;;;;;17.23;67.66;97357.63;4921349;28;20639;-83
2022/10/14 01:17:29;;;;;;;22.45;14.00;;;;;;;16.99;68.03;97360.28;4930276;28;20725;-80
2022/10/14 01:20:10;;;;;;;24.13;14.18;;;;;;;17.08;67.85;97355.97;4940846;28;20319;-80
2022/10/14 01:22:47;;;;;;;22.27;13.57;;;;;;;16.93;68.33;97364.03;4932374;28;20658;-81
2022/10/14 01:25:29;;;;;;;24.10;14.50;;;;;;;16.87;68.55;97355.44;4915621;28;20240;-80
2022/10/14 01:28:00;;;;;;;22.55;14.95;;;;;;;16.96;68.40;97358.22;4931394;28;20211;-80
2022/10/14 01:30:31;;;;;;;25.10;14.93;;;;;;;17.06;68.25;97357.31;4915834;28;20546;-81
2022/10/14 01:33:00;;;;;;;24.20;14.98;;;;;;;17.20;67.70;97366.09;4916290;28;20190;-80
2022/10/14 01:35:49;;;;;;;23.50;13.57;;;;;;;17.13;67.72;97353.28;4951376;28;20213;-80
2022/10/14 01:38:34;;;;;;;20.52;14.10;;;;;;;17.22;67.60;97350.78;4932336;28;20374;-80
2022/10/14 01:41:11;;;;;;;24.67;13.32;;;;;;;17.12;67.92;97350.91;4947066;28;20695;-80
2022/10/14 01:43:40;;;;;;;21.92;14.60;;;;;;;17.16;67.61;97336.16;4958127;28;20204;-80
2022/10/14 01:46:05;;;;;;;23.98;13.77;;;;;;;17.23;67.84;97336.59;4955862;28;20727;-80
2022/10/14 01:48:37;;;;;;;24.42;13.30;;;;;;;17.14;67.77;97330.41;4931568;28;20391;-80
2022/10/14 01:51:07;;;;;;;23.00;14.10;;;;;;;17.20;67.66;97324.00;4949485;28;20303;-80
2022/10/14 01:53:38;;;;;;;23.27;14.32;;;;;;;17.27;67.52;97324.41;4914773;28;20698;-80
2022/10/14 01:56:05;;;;;;;22.50;14.70;;;;;;;17.40;67.11;97321.09;4896960;28;20213;-80
2022/10/14 01:58:31;;;;;;;24.63;14.82;;;;;;;17.35;67.50;97313.25;4917262;28;20877;-80
2022/10/14 02:00:56;;;;;;;22.52;13.85;;;;;;;17.36;67.31;97314.84;4931407;28;20534;-80
2022/10/14 02:03:22;;;;;;;23.75;15.35;;;;;;;17.38;67.26;97315.31;4915247;28;20220;-80
2022/10/14 02:06:00;;;;;;;24.15;15.75;;;;;;;17.17;67.85;97317.47;4924988;28;20222;-80
2022/10/14 02:08:34;;;;;;;21.08;13.75;;;;;;;17.34;67.23;97322.25;4912556;28;20174;-80
2022/10/14 02:11:08;;;;;;;21.15;13.43;;;;;;;17.16;67.81;97309.84;4934782;28;20196;-80
2022/10/14 02:14:03;;;;;;;23.48;13.73;;;;;;;17.01;68.32;97310.81;4947288;28;20296;-80
2022/10/14 02:17:00;;;;;;;22.10;13.68;;;;;;;17.13;68.11;97305.16;4953284;28;20538;-80
2022/10/14 02:19:34;;;;;;;22.63;13.15;;;;;;;17.21;68.01;97299.25;4950435;28;20198;-80
2022/10/14 02:22:21;;;;;;;22.45;13.90;;;;;;;17.32;67.29;97297.25;4947123;28;20296;-79
2022/10/14 02:24:51;;;;;;;21.13;12.90;;;;;;;17.32;67.04;97284.09;4948049;28;20179;-80
2022/10/14 02:27:18;;;;;;;22.33;12.93;;;;;;;17.36;67.02;97282.47;4898413;28;20217;-80
2022/10/14 02:29:45;;;;;;;19.17;12.18;;;;;;;17.35;67.36;97275.63;4930758;28;20212;-80
2022/10/14 02:32:13;;;;;;;19.55;12.50;;;;;;;17.29;67.58;97261.78;4913828;28;20193;-80
2022/10/14 02:34:39;;;;;;;21.30;12.90;;;;;;;17.37;67.34;97261.09;4913925;28;20443;-80
2022/10/14 02:37:05;;;;;;;20.85;12.68;;;;;;;17.32;67.61;97260.41;4914743;28;20277;-80
2022/10/14 02:39:35;;;;;;;21.85;13.30;;;;;;;17.24;67.66;97248.69;4930601;28;20170;-80
2022/10/14 02:42:00;;;;;;;19.30;12.50;;;;;;;17.40;67.52;97257.91;4933701;28;20285;-80
2022/10/14 02:44:26;;;;;;;21.60;13.05;;;;;;;17.40;67.08;97254.50;4933592;28;20588;-80
2022/10/14 02:46:54;;;;;;;21.33;13.10;;;;;;;17.26;67.47;97243.91;4898684;28;20288;-80
2022/10/14 02:49:20;;;;;;;18.27;13.18;;;;;;;17.40;67.28;97241.34;4914046;28;20246;-80
2022/10/14 02:51:45;;;;;;;20.88;12.73;;;;;;;17.44;67.12;97236.28;4925342;28;20287;-80
2022/10/14 02:54:11;;;;;;;22.38;12.95;;;;;;;17.43;67.08;97235.50;4940192;28;20276;-80
2022/10/14 02:56:36;;;;;;;19.80;11.80;;;;;;;17.44;67.39;97231.03;4958021;28;20668;-80
2022/10/14 02:59:01;;;;;;;20.15;12.88;;;;;;;17.44;67.30;97223.13;4912293;28;20205;-80
2022/10/14 03:01:27;;;;;;;23.10;13.43;;;;;;;17.42;67.45;97223.41;4913689;28;20201;-80
2022/10/14 03:03:52;;;;;;;19.13;12.95;;;;;;;17.35;67.66;97218.50;4897359;28;20658;-80
2022/10/14 03:06:17;;;;;;;23.20;12.90;;;;;;;17.41;67.63;97227.13;4930423;28;20632;-80
2022/10/14 03:08:43;;;;;;;19.63;12.80;;;;;;;17.37;67.47;97226.91;4930352;28;20279;-80
2022/10/14 03:11:08;;;;;;;19.50;13.07;;;;;;;17.43;67.25;97230.25;4958629;28;20248;-80
2022/10/14 03:13:34;;;;;;;16.77;12.05;;;;;;;17.42;67.56;97228.69;4954076;28;20189;-80
2022/10/14 03:15:59;;;;;;;20.60;13.25;;;;;;;17.39;67.54;97224.78;4939229;28;20326;-80
2022/10/14 03:18:24;;;;;;;20.05;11.95;;;;;;;17.39;67.53;97222.16;4897341;28;20180;-80
2022/10/14 03:20:50;;;;;;;20.73;13.05;;;;;;;17.35;67.62;97223.78;4929240;28;20166;-80
2022/10/14 03:23:15;;;;;;;19.15;12.70;;;;;;;17.32;67.93;97220.94;4924910;28;20184;-80
2022/10/14 03:25:42;;;;;;;25.05;13.18;;;;;;;17.34;67.18;97216.97;4929939;28;20217;-80
2022/10/14 03:28:08;;;;;;;19.80;12.25;;;;;;;17.41;67.53;97206.06;4897902;28;20628;-80
2022/10/14 03:30:33;;;;;;;21.83;12.57;;;;;;;17.31;67.79;97212.25;4956871;28;20174;-80
2022/10/14 03:32:58;;;;;;;21.90;13.77;;;;;;;17.40;67.33;97210.53;4939933;28;20193;-80
2022/10/14 03:35:24;;;;;;;21.10;12.00;;;;;;;17.40;67.45;97215.03;4946905;28;20194;-79
2022/10/14 03:37:52;;;;;;;23.08;14.40;;;;;;;17.37;67.60;97205.84;4938945;28;20715;-80
2022/10/14 03:40:17;;;;;;;20.42;13.15;;;;;;;17.34;67.76;97209.06;4908802;28;20811;-80
2022/10/14 03:42:42;;;;;;;22.67;12.45;;;;;;;17.34;67.63;97201.16;4962088;28;20255;-80
2022/10/14 03:45:08;;;;;;;18.77;11.85;;;;;;;17.41;67.65;97206.84;4895735;28;20098;-80
2022/10/14 03:47:33;;;;;;;19.38;12.77;;;;;;;17.40;67.48;97210.53;4928785;28;20167;-82
2022/10/14 03:49:59;;;;;;;17.92;11.88;;;;;;;17.47;67.40;97209.41;4942691;28;20651;-80
2022/10/14 03:52:25;;;;;;;20.17;12.55;;;;;;;17.39;67.26;97201.09;4944620;28;20694;-79
2022/10/14 03:54:50;;;;;;;20.85;11.98;;;;;;;17.45;67.48;97201.00;4897063;28;20275;-80
2022/10/14 03:57:15;;;;;;;18.40;12.60;;;;;;;17.42;67.25;97202.34;4943624;28;20178;-80
2022/10/14 03:59:41;;;;;;;18.95;12.57;;;;;;;17.41;67.46;97196.31;4928331;28;20204;-80
2022/10/14 04:02:06;;;;;;;21.23;13.57;;;;;;;17.39;67.47;97197.66;4935174;28;20344;-81
2022/10/14 04:04:31;;;;;;;19.75;12.85;;;;;;;17.39;67.62;97193.19;4928500;28;20624;-79
2022/10/14 04:06:57;;;;;;;19.30;12.68;;;;;;;17.42;67.36;97187.34;4920134;28;20182;-80
2022/10/14 04:09:22;;;;;;;18.85;12.40;;;;;;;17.51;66.92;97194.56;4950560;28;20356;-80
2022/10/14 04:11:48;;;;;;;19.92;12.52;;;;;;;17.43;67.42;97190.75;4944990;28;20303;-80
2022/10/14 04:14:13;;;;;;;18.45;12.15;;;;;;;17.42;67.53;97191.81;4928858;28;20170;-80
2022/10/14 04:16:39;;;;;;;19.92;12.30;;;;;;;17.45;67.23;97199.16;4953470;28;20190;-80
2022/10/14 04:19:04;;;;;;;16.45;11.13;;;;;;;17.45;67.49;97195.75;4936759;28;20209;-80
2022/10/14 04:21:30;;;;;;;20.13;12.45;;;;;;;17.43;67.59;97190.75;4931201;28;20387;-80
2022/10/14 04:23:55;;;;;;;19.67;12.18;;;;;;;17.42;67.23;97183.94;4932513;28;20232;-80
2022/10/14 04:26:21;;;;;;;20.20;12.25;;;;;;;17.46;67.45;97192.84;4921373;28;20452;-80
2022/10/14 04:28:46;;;;;;;19.40;11.70;;;;;;;17.47;67.27;97183.06;4936675;28;20201;-80
2022/10/14 04:31:11;;;;;;;18.55;11.50;;;;;;;17.45;67.16;97177.31;4961248;28;20258;-80
2022/10/14 04:33:37;;;;;;;15.02;10.25;;;;;;;17.44;67.42;97176.53;4944351;28;20174;-80
2022/10/14 04:36:04;;;;;;;18.80;11.32;;;;;;;17.39;67.21;97164.25;4927722;28;20328;-80
2022/10/14 04:38:30;;;;;;;14.93;11.07;;;;;;;17.47;66.65;97167.28;4912185;28;20786;-80
2022/10/14 04:40:56;;;;;;;17.85;11.15;;;;;;;17.48;66.81;97153.84;4912244;28;20364;-80
2022/10/14 04:43:21;;;;;;;15.20;9.95;;;;;;;17.37;67.33;97158.47;4911907;28;20232;-79
2022/10/14 04:45:47;;;;;;;15.10;10.02;;;;;;;17.34;67.38;97159.06;4943102;28;20216;-80
2022/10/14 04:48:12;;;;;;;18.77;10.20;;;;;;;17.39;66.92;97150.28;4944562;28;20184;-80
2022/10/14 04:50:38;;;;;;;14.70;9.20;;;;;;;17.40;66.80;97159.75;4930471;28;20666;-80
2022/10/14 04:53:03;;;;;;;13.98;9.43;;;;;;;17.32;66.95;97160.41;4942630;28;20553;-80
2022/10/14 04:55:28;;;;;;;14.23;8.73;;;;;;;17.38;66.93;97154.78;4932888;28;20318;-80
2022/10/14 04:57:54;;;;;;;15.25;10.00;;;;;;;17.33;66.86;97149.59;4939208;28;20206;-80
2022/10/14 05:00:19;;;;;;;15.60;9.20;;;;;;;17.32;66.91;97145.38;4943430;28;20174;-80
2022/10/14 05:02:45;;;;;;;13.90;8.68;;;;;;;17.34;66.96;97142.47;4923349;28;20287;-80
2022/10/14 05:05:10;;;;;;;13.15;8.70;;;;;;;17.21;67.36;97141.38;4941321;28;20295;-82
2022/10/14 05:07:36;;;;;;;13.02;8.25;;;;;;;17.29;67.27;97140.72;4898954;28;20212;-80
2022/10/14 05:10:03;;;;;;;14.70;8.70;;;;;;;17.28;66.99;97133.88;4931262;28;20293;-80
2022/10/14 05:12:29;;;;;;;11.93;8.40;;;;;;;17.30;67.01;97144.13;4942088;28;20174;-80
2022/10/14 05:14:55;;;;;;;12.20;8.48;;;;;;;17.29;66.89;97129.41;4930563;28;20213;-82
2022/10/14 05:17:20;;;;;;;11.93;8.57;;;;;;;17.30;66.70;97125.72;4930479;28;20174;-82
2022/10/14 05:19:46;;;;;;;13.63;8.10;;;;;;;17.22;67.09;97119.25;4934705;28;20274;-83
2022/10/14 05:22:11;;;;;;;12.00;8.18;;;;;;;17.28;67.09;97130.47;4934552;28;20638;-80
2022/10/14 05:24:36;;;;;;;12.38;7.43;;;;;;;17.26;66.80;97130.00;4930398;28;20170;-79
2022/10/14 05:27:02;;;;;;;12.10;8.13;;;;;;;17.19;67.03;97125.09;4928044;28;20298;-80
2022/10/14 05:29:27;;;;;;;10.13;6.70;;;;;;;17.17;67.01;97129.84;4930453;28;20289;-80
2022/10/14 05:31:53;;;;;;;11.75;7.93;;;;;;;17.14;66.88;97127.81;4962097;28;20647;-80
2022/10/14 05:34:18;;;;;;;12.48;7.68;;;;;;;17.13;66.83;97132.28;4914967;28;20186;-80
2022/10/14 05:36:44;;;;;;;10.40;7.05;;;;;;;17.12;67.03;97140.44;4945907;28;20106;-79
2022/10/14 05:39:10;;;;;;;10.73;7.20;;;;;;;17.13;66.78;97147.28;4899107;28;20201;-80
2022/10/14 05:41:36;;;;;;;12.77;6.90;;;;;;;17.06;66.84;97141.63;4930121;28;20296;-80
2022/10/14 05:44:02;;;;;;;9.95;6.85;;;;;;;17.02;66.99;97136.91;4930531;28;20205;-80
2022/10/14 05:46:27;;;;;;;10.38;7.43;;;;;;;16.99;67.06;97131.47;4945128;28;20203;-80
2022/10/14 05:48:53;;;;;;;11.23;7.07;;;;;;;17.03;67.11;97137.69;4947050;28;20659;-80
2022/10/14 05:51:20;;;;;;;11.35;7.80;;;;;;;16.99;67.37;97137.50;4922052;28;20220;-80
2022/10/14 05:53:46;;;;;;;10.10;7.03;;;;;;;17.01;67.33;97127.47;4931002;28;20668;-80
2022/10/14 05:56:11;;;;;;;9.35;7.45;;;;;;;17.06;67.25;97131.09;4960092;28;20289;-79
2022/10/14 05:58:37;;;;;;;11.32;8.48;;;;;;;17.06;67.34;97123.97;4955077;28;20632;-82
2022/10/14 06:01:04;;;;;;;9.13;7.03;;;;;;;17.08;67.12;97123.69;4914428;28;20248;-82
2022/10/14 06:03:30;;;;;;;11.50;6.60;;;;;;;17.10;67.21;97121.56;4932697;28;20820;-82
2022/10/14 06:05:56;;;;;;;10.77;7.38;;;;;;;17.14;66.98;97125.19;4936969;28;20162;-82
2022/10/14 06:08:22;;;;;;;9.15;6.95;;;;;;;17.14;67.21;97106.78;4937180;28;20201;-82
2022/10/14 06:10:47;;;;;;;9.85;7.53;;;;;;;17.12;67.32;97109.69;4941725;28;20239;-80
2022/10/14 06:13:13;;;;;;;10.00;7.13;;;;;;;17.14;67.33;97115.44;4946808;28;20212;-79
2022/10/14 06:15:38;;;;;;;10.45;7.35;;;;;;;17.14;67.49;97112.03;4946219;28;20178;-80
2022/10/14 06:18:04;;;;;;;12.55;6.55;;;;;;;17.20;67.36;97106.41;4937110;28;20666;-80
2022/10/14 06:20:30;;;;;;;9.77;6.93;;;;;;;17.23;66.97;97110.28;4914723;28;20216;-79
2022/10/14 06:22:58;;;;;;;11.25;7.10;;;;;;;17.17;67.43;97101.72;4943996;28;20291;-80
2022/10/14 06:25:23;;;;;;;10.25;7.53;;;;;;;17.27;67.10;97100.75;4946844;28;20269;-80
2022/10/14 06:27:49;;;;;;;11.15;6.30;;;;;;;17.31;66.86;97100.97;4946699;28;20297;-80
2022/10/14 06:30:14;;;;;;;11.77;6.53;;;;;;;17.30;66.83;97104.66;4929971;28;20248;-80
2022/10/14 06:32:40;;;;;;;9.13;6.10;;;;;;;17.33;66.61;97101.44;4930400;28;20739;-80
2022/10/14 06:35:06;;;;;;;7.78;5.70;;;;;;;17.35;66.56;97105.34;4948006;28;20689;-79
2022/10/14 06:37:31;;;;;;;9.35;6.88;;;;;;;17.32;66.67;97107.78;4947229;28;20654;-80
2022/10/14 06:39:56;;;;;;;9.88;7.32;;;;;;;17.31;66.61;97109.63;4933155;28;20225;-80
2022/10/14 06:42:22;;;;;;;10.63;7.13;;;;;;;17.31;66.96;97103.59;4935700;28;20553;-80
2022/10/14 06:44:47;;;;;;;9.63;6.95;;;;;;;17.32;66.81;97121.69;4902715;28;20670;-79
2022/10/14 06:47:12;;;;;;;12.40;7.50;;;;;;;17.31;66.87;97117.53;4945505;28;20319;-80
2022/10/14 06:49:38;;;;;;;9.20;6.13;;;;;;;17.32;66.53;97105.91;4938336;28;20252;-80
2022/10/14 06:52:06;;;;;;;10.55;6.13;;;;;;;17.21;67.11;97110.56;4899947;28;20257;-82
2022/10/14 06:54:31;;;;;;;9.32;6.07;;;;;;;17.44;66.68;97104.69;4926081;28;20670;-82
2022/10/14 06:56:57;;;;;;;12.75;6.88;;;;;;;17.46;66.09;97098.06;4930024;28;20357;-83
2022/10/14 06:59:22;;;;;;;7.88;5.63;;;;;;;17.48;66.43;97097.75;4921392;28;20220;-82
2022/10/14 07:01:48;;;;;;;10.90;6.45;;;;;;;17.47;66.02;97099.63;4962530;28;20210;-80
2022/10/14 07:04:13;;;;;;;8.32;6.40;;;;;;;17.53;66.18;97097.66;4929444;28;20269;-80
2022/10/14 07:06:38;;;;;;;7.07;5.45;;;;;;;17.59;65.95;97099.91;4940798;28;20190;-80
2022/10/14 07:09:04;;;;;;;9.52;5.30;;;;;;;17.67;65.59;97093.19;4940235;28;20279;-80
2022/10/14 07:11:29;;;;;;;9.45;5.82;;;;;;;17.72;65.42;97094.97;4925066;28;20216;-80
2022/10/14 07:13:56;;;;;;;7.28;5.85;;;;;;;17.70;65.74;97102.34;4918708;28;20647;-80
2022/10/14 07:16:21;;;;;;;8.25;6.35;;;;;;;17.74;65.64;97090.97;4929750;28;20331;-80
2022/10/14 07:18:47;;;;;;;8.38;5.47;;;;;;;17.69;65.61;97096.31;4928804;28;20448;-80
2022/10/14 07:21:13;;;;;;;8.85;5.53;;;;;;;17.69;65.29;97085.00;4898396;28;20220;-79
2022/10/14 07:23:38;;;;;;;7.13;5.22;;;;;;;17.71;65.49;97082.88;4913301;28;20170;-80
2022/10/14 07:26:04;;;;;;;10.40;5.28;;;;;;;17.79;65.79;97095.34;4913395;28;20267;-80
2022/10/14 07:28:29;;;;;;;8.30;5.55;;;;;;;17.83;64.97;97095.53;4960597;28;20256;-79
2022/10/14 07:30:56;;;;;;;7.75;5.60;;;;;;;17.73;65.31;97097.28;4897787;28;20197;-79
2022/10/14 07:33:21;;;;;;;8.82;5.20;;;;;;;17.78;65.10;97094.56;4960644;28;20639;-79
2022/10/14 07:35:47;;;;;;;7.72;5.18;;;;;;;17.86;64.85;97097.59;4897902;28;20132;-80
2022/10/14 07:38:12;;;;;;;7.07;4.90;;;;;;;17.83;65.38;97106.09;4943095;28;20213;-80
2022/10/14 07:40:38;;;;;;;10.00;5.53;;;;;;;17.93;65.03;97106.69;4897582;28;20624;-80
2022/10/14 07:43:03;;;;;;;9.90;5.88;;;;;;;17.86;65.26;97111.56;4926260;28;20705;-79
2022/10/14 07:45:34;;;;;;;6.75;5.00;;;;;;;17.81;65.00;97114.28;4929664;28;20241;-80
2022/10/14 07:47:59;;;;;;;8.43;6.03;;;;;;;17.77;65.55;97111.44;4959360;28;20247;-80
2022/10/14 07:50:24;;;;;;;8.85;5.88;;;;;;;17.85;65.03;97106.56;4925840;28;20179;-80
2022/10/14 07:52:50;;;;;;;8.25;5.70;;;;;;;17.94;65.09;97107.47;4957481;28;20200;-80
2022/10/14 07:55:15;;;;;;;7.95;5.93;;;;;;;17.91;65.49;97108.06;4937039;28;20095;-80
2022/10/14 07:57:41;;;;;;;8.70;5.72;;;;;;;17.91;65.30;97102.81;4956801;28;20288;-80
2022/10/14 08:00:07;;;;;;;6.53;5.50;;;;;;;18.04;65.29;97106.50;4952777;28;20248;-79
2022/10/14 08:02:32;;;;;;;7.57;5.60;;;;;;;18.12;64.48;97108.44;4912778;28;20770;-80
2022/10/14 08:04:57;;;;;;;6.68;5.22;;;;;;;18.18;64.39;97106.47;4961579;28;20166;-80
2022/10/14 08:07:24;;;;;;;8.05;5.38;;;;;;;18.12;64.13;97108.44;4913019;28;20281;-81
2022/10/14 08:09:52;;;;;;;7.53;4.72;;;;;;;18.17;64.14;97102.28;4932817;28;20466;-81
2022/10/14 08:12:18;;;;;;;6.65;5.45;;;;;;;18.16;64.95;97104.13;4947966;28;20245;-79
2022/10/14 08:14:43;;;;;;;7.50;4.90;;;;;;;18.15;64.46;97095.44;4931810;28;20249;-79
2022/10/14 08:17:08;;;;;;;8.88;5.57;;;;;;;18.31;64.04;97095.91;4912802;28;20248;-80
2022/10/14 08:19:34;;;;;;;8.30;5.03;;;;;;;18.37;64.00;97098.44;4928644;28;20709;-80
2022/10/14 08:21:59;;;;;;;7.07;4.15;;;;;;;18.35;63.92;97096.09;4947383;28;20636;-79
2022/10/14 08:24:25;;;;;;;5.72;4.50;;;;;;;18.36;64.42;97100.28;4946675;28;20178;-80
2022/10/14 08:26:53;;;;;;;7.28;4.85;;;;;;;18.29;64.14;97105.19;4894000;28;20390;-80
2022/10/14 08:29:21;;;;;;;5.82;4.53;;;;;;;18.52;64.21;97100.72;4958960;28;20392;-80
2022/10/14 08:31:47;;;;;;;5.72;4.43;;;;;;;18.58;63.86;97102.19;4954420;28;20162;-80
2022/10/14 08:34:12;;;;;;;9.13;5.07;;;;;;;18.50;63.53;97100.25;4961773;28;20583;-80
2022/10/14 08:36:38;;;;;;;6.65;5.38;;;;;;;18.46;64.05;97101.94;4913280;28;20209;-80
2022/10/14 08:39:04;;;;;;;9.35;5.07;;;;;;;18.28;64.78;97099.16;4928557;28;20185;-79
2022/10/14 08:41:39;;;;;;;8.55;6.00;;;;;;;18.12;64.59;97103.16;4913465;28;20830;-79
2022/10/14 08:44:37;;;;;;;;;;;;;;;18.01;65.58;97101.81;4939536;28;20350;-80
2022/10/14 08:47:03;;;;;;;6.50;5.30;;;;;;;18.34;64.87;97099.81;4904809;28;20639;-79
2022/10/14 08:49:50;;;;;;;7.65;5.30;;;;;;;18.01;65.75;97091.25;4962469;28;20595;-79
2022/10/14 08:52:20;;;;;;;7.40;5.28;;;;;;;18.09;65.48;97091.34;4955276;28;20083;-79
2022/10/14 08:54:54;;;;;;;8.98;5.40;;;;;;;18.19;65.43;97086.97;4937372;28;20029;-79
2022/10/14 08:57:22;;;;;;;7.38;4.88;;;;;;;18.29;64.99;97086.75;4921841;28;20033;-79
2022/10/14 08:59:48;;;;;;;7.80;5.95;;;;;;;18.37;65.41;97083.41;4946123;28;20021;-79
2022/10/14 09:02:13;;;;;;;7.40;5.13;;;;;;;18.33;65.14;97092.97;4939055;28;20192;-79
2022/10/14 09:04:38;;;;;;;7.38;4.93;;;;;;;18.28;65.20;97083.34;4952272;28;20044;-79
2022/10/14 09:07:04;;;;;;;7.80;5.30;;;;;;;18.40;65.03;97088.06;4953957;28;20023;-80
2022/10/14 09:09:48;;;;;;;8.52;4.60;;;;;;;18.11;65.71;97078.69;4906054;28;20056;-79
2022/10/14 09:12:18;;;;;;;8.57;4.63;;;;;;;18.30;65.31;97075.91;4950542;28;20029;-79
2022/10/14 09:14:51;;;;;;;4.22;3.75;;;;;;;18.10;65.76;97074.47;4925865;28;20273;-78
2022/10/14 09:17:16;;;;;;;7.18;4.60;;;;;;;18.37;65.98;97078.13;4918219;28;20614;-79
2022/10/14 09:19:51;;;;;;;6.00;4.47;;;;;;;18.04;65.90;97070.38;4939159;28;20026;-78
2022/10/14 09:22:16;;;;;;;5.97;3.83;;;;;;;18.34;66.02;97070.81;4949164;28;20087;-79
2022/10/14 09:24:44;;;;;;;7.05;4.53;;;;;;;18.27;66.52;97071.22;4935432;28;20503;-80
2022/10/14 09:27:16;;;;;;;8.43;4.30;;;;;;;18.28;66.04;97064.09;4906268;28;20025;-79
2022/10/14 09:29:48;;;;;;;6.72;4.95;;;;;;;18.36;66.06;97066.03;4946036;28;20048;-79
2022/10/14 09:32:19;;;;;;;5.93;3.92;;;;;;;18.50;65.66;97056.22;4921738;28;20029;-79
2022/10/14 09:34:48;;;;;;;5.70;3.90;;;;;;;18.38;65.58;97055.97;4950540;28;20021;-79
2022/10/14 09:37:32;;;;;;;7.25;4.03;;;;;;;18.33;66.60;97056.88;4951745;28;20578;-79
2022/10/14 09:40:01;;;;;;;6.18;3.70;;;;;;;18.59;65.96;97063.41;4939031;28;20049;-80
2022/10/14 09:43:12;;;;;;;7.95;4.32;;;;;;;18.26;66.38;97050.44;4939322;28;20053;-79
2022/10/14 09:45:54;;;;;;;6.13;3.65;;;;;;;18.42;65.50;97051.66;4919506;28;20068;-79
2022/10/14 09:48:48;;;;;;;6.32;3.78;;;;;;;18.44;65.45;97044.22;4959304;28;20738;-79
2022/10/14 09:51:39;;;;;;;8.18;4.60;;;;;;;18.37;65.75;97050.97;4932493;28;20028;-79
2022/10/14 09:54:05;;;;;;;5.20;3.67;;;;;;;18.74;65.63;97044.59;4900938;28;20033;-79
2022/10/14 09:56:38;;;;;;;6.35;3.85;;;;;;;18.55;65.40;97036.09;4970212;28;20033;-79
2022/10/14 09:59:14;;;;;;;5.88;3.50;;;;;;;18.53;65.47;97034.53;4909913;28;20017;-80
2022/10/14 10:01:48;;;;;;;4.97;3.53;;;;;;;18.48;65.49;97031.22;4969065;28;20029;-79
2022/10/14 10:04:46;;;;;;;6.78;3.55;;;;;;;18.41;66.49;97029.00;4921684;28;20116;-79
2022/10/14 10:07:31;;;;;;;5.63;3.60;;;;;;;18.01;67.76;97023.56;4934571;28;20043;-81
2022/10/14 10:09:58;;;;;;;4.10;3.25;;;;;;;18.37;66.77;97028.06;4966103;28;20188;-79
2022/10/14 10:12:32;;;;;;;5.15;3.65;;;;;;;18.47;66.67;97019.91;4938487;28;20828;-81
2022/10/14 10:15:03;;;;;;;4.75;3.17;;;;;;;18.38;66.79;97026.19;4926608;28;20025;-80
2022/10/14 10:17:34;;;;;;;5.75;3.40;;;;;;;18.41;66.78;97023.72;4910490;28;20241;-80
2022/10/14 10:20:15;;;;;;;3.78;3.35;;;;;;;18.40;67.42;97016.91;4939131;28;20855;-80
2022/10/14 10:22:41;;;;;;;4.07;2.55;;;;;;;18.44;67.07;97014.44;4938106;28;20029;-79
2022/10/14 10:25:07;;;;;;;3.00;2.47;;;;;;;18.37;67.05;97016.72;4947234;28;20037;-80
2022/10/14 10:27:40;;;;;;;3.53;2.65;;;;;;;18.49;66.54;97012.47;4947647;28;20032;-79
2022/10/14 10:30:23;;;;;;;5.82;3.13;;;;;;;18.46;66.77;97013.06;4957359;28;20574;-80
2022/10/14 10:33:02;;;;;;;3.80;2.72;;;;;;;18.65;66.48;97012.13;4926484;28;20426;-81
2022/10/14 10:35:48;;;;;;;5.90;3.10;;;;;;;18.62;66.56;97007.44;4943164;28;20132;-79
2022/10/14 10:38:21;;;;;;;4.60;2.55;;;;;;;18.50;66.51;97018.53;4973226;28;20025;-80
2022/10/14 10:41:14;;;;;;;4.47;2.83;;;;;;;18.50;66.92;97016.66;4926111;28;20025;-81
2022/10/14 10:44:01;;;;;;;3.90;2.55;;;;;;;18.44;66.78;97015.22;4969912;28;20029;-79
2022/10/14 10:46:30;;;;;;;2.58;2.28;;;;;;;18.65;66.67;97007.63;4948767;28;20053;-79
2022/10/14 10:49:13;;;;;;;3.25;2.42;;;;;;;18.55;66.43;97004.44;4938554;28;20033;-79
2022/10/14 10:51:53;;;;;;;4.65;2.15;;;;;;;18.42;66.36;97003.41;4955015;28;20033;-79
2022/10/14 10:54:34;;;;;;;2.72;2.17;;;;;;;18.45;66.68;96994.91;4948268;28;20625;-80
2022/10/14 10:57:08;;;;;;;2.38;2.17;;;;;;;18.42;66.76;96998.16;4971626;28;20037;-81
2022/10/14 11:00:04;;;;;;;3.80;2.43;;;;;;;18.14;67.58;96991.09;4969611;28;20815;-80
2022/10/14 11:02:53;;;;;;;3.30;2.53;;;;;;;18.36;66.51;96997.50;4911704;28;20362;-80
2022/10/14 11:05:22;;;;;;;4.43;2.83;;;;;;;18.26;67.02;97001.13;4957521;28;20094;-80
2022/10/14 11:14:05;;;;;;;5.38;3.45;;;;;;;18.28;67.03;96996.38;4917790;28;20034;-80
2022/10/14 11:16:35;;;;;;;3.72;2.90;;;;;;;18.36;67.16;96994.84;4920706;28;20128;-80
2022/10/14 11:19:13;;;;;;;3.70;3.15;;;;;;;18.47;66.71;96980.38;4969211;28;20037;-80
2022/10/14 11:21:50;;;;;;;2.75;2.55;;;;;;;18.73;66.71;96979.75;4969477;28;20037;-80
2022/10/14 11:24:26;;;;;;;3.08;2.55;;;;;;;18.55;66.74;96972.81;4942262;28;20025;-80
2022/10/14 11:27:12;;;;;;;3.15;2.70;;;;;;;18.64;66.66;96965.72;4941963;28;20045;-81
2022/10/14 11:30:02;;;;;;;3.15;2.58;;;;;;;18.61;66.29;96955.78;4928544;28;20691;-81
2022/10/14 11:32:48;;;;;;;4.95;2.75;;;;;;;18.76;66.46;96955.38;4940171;28;20052;-80
2022/10/14 11:35:25;;;;;;;4.20;2.75;;;;;;;18.59;66.79;96958.69;4942420;28;20040;-80
2022/10/14 11:37:54;;;;;;;3.38;2.58;;;;;;;18.87;65.66;96969.16;4978174;28;20029;-81
2022/10/14 11:40:27;;;;;;;3.40;3.10;;;;;;;18.71;66.10;96969.50;4956558;28;20748;-81
2022/10/14 11:43:33;;;;;;;3.67;3.00;;;;;;;18.42;66.48;96959.41;4948220;28;20225;-80